sensor_id;sensor_type;location;lat;lon;timestamp;pressure;altitude;pressure_sealevel;temperature;humidity
30636;BME280;17400;52.392;9.750;2022-12-15T00:00:20;99824.41;;;-3.52;89.55
30636;BME280;17400;52.392;9.750;2022-12-15T00:03:06;99822.34;;;-3.48;90.35
30636;BME280;17400;52.392;9.750;2022-12-15T00:05:52;99825.75;;;-3.58;89.60
30636;BME280;17400;52.392;9.750;2022-12-15T00:08:39;99816.09;;;-3.47;91.88
30636;BME280;17400;52.392;9.750;2022-12-15T00:11:24;99823.53;;;-3.41;93.05
30636;BME280;17400;52.392;9.750;2022-12-15T00:14:10;99814.91;;;-3.33;92.53
30636;BME280;17400;52.392;9.750;2022-12-15T00:16:57;99822.28;;;-3.37;91.76
30636;BME280;17400;52.392;9.750;2022-12-15T00:19:43;99832.16;;;-3.39;91.90
30636;BME280;17400;52.392;9.750;2022-12-15T00:22:29;99824.09;;;-3.38;92.47
30636;BME280;17400;52.392;9.750;2022-12-15T00:25:15;99828.69;;;-3.40;92.88
30636;BME280;17400;52.392;9.750;2022-12-15T00:28:01;99830.47;;;-3.40;92.45
30636;BME280;17400;52.392;9.750;2022-12-15T00:30:46;99826.88;;;-3.39;91.84
30636;BME280;17400;52.392;9.750;2022-12-15T00:33:33;99825.81;;;-3.48;89.59
30636;BME280;17400;52.392;9.750;2022-12-15T00:36:19;99823.31;;;-3.49;89.04
30636;BME280;17400;52.392;9.750;2022-12-15T00:39:04;99815.38;;;-3.49;88.03
30636;BME280;17400;52.392;9.750;2022-12-15T00:41:32;99816.41;;;-3.62;88.42
30636;BME280;17400;52.392;9.750;2022-12-15T00:44:04;99812.06;;;-3.63;88.44
30636;BME280;17400;52.392;9.750;2022-12-15T00:46:32;99821.44;;;-3.59;88.89
30636;BME280;17400;52.392;9.750;2022-12-15T00:49:18;99817.00;;;-3.58;89.07
30636;BME280;17400;52.392;9.750;2022-12-15T00:52:04;99826.59;;;-3.57;88.24
30636;BME280;17400;52.392;9.750;2022-12-15T00:54:49;99814.22;;;-3.57;88.69
30636;BME280;17400;52.392;9.750;2022-12-15T00:57:34;99828.59;;;-3.49;88.24
30636;BME280;17400;52.392;9.750;2022-12-15T01:00:20;99836.16;;;-3.66;86.21
30636;BME280;17400;52.392;9.750;2022-12-15T01:03:10;99841.50;;;-3.56;87.43
30636;BME280;17400;52.392;9.750;2022-12-15T01:06:03;99844.53;;;-3.61;86.70
30636;BME280;17400;52.392;9.750;2022-12-15T01:08:49;99848.97;;;-3.61;87.35
30636;BME280;17400;52.392;9.750;2022-12-15T01:11:34;99842.25;;;-3.65;86.75
30636;BME280;17400;52.392;9.750;2022-12-15T01:14:20;99850.13;;;-3.75;87.52
30636;BME280;17400;52.392;9.750;2022-12-15T01:17:06;99843.75;;;-3.73;87.07
30636;BME280;17400;52.392;9.750;2022-12-15T01:19:51;99845.19;;;-3.80;86.61
30636;BME280;17400;52.392;9.750;2022-12-15T01:22:38;99848.94;;;-3.82;85.78
30636;BME280;17400;52.392;9.750;2022-12-15T01:25:08;99852.91;;;-3.77;86.85
30636;BME280;17400;52.392;9.750;2022-12-15T01:27:37;99853.25;;;-3.70;88.08
30636;BME280;17400;52.392;9.750;2022-12-15T01:30:07;99847.00;;;-3.69;88.48
30636;BME280;17400;52.392;9.750;2022-12-15T01:32:35;99841.09;;;-3.73;89.29
30636;BME280;17400;52.392;9.750;2022-12-15T01:35:11;99848.41;;;-3.65;89.82
30636;BME280;17400;52.392;9.750;2022-12-15T01:37:41;99843.88;;;-3.74;88.56
30636;BME280;17400;52.392;9.750;2022-12-15T01:40:12;99846.69;;;-3.87;88.49
30636;BME280;17400;52.392;9.750;2022-12-15T01:42:58;99839.56;;;-3.87;87.95
30636;BME280;17400;52.392;9.750;2022-12-15T01:45:50;99848.72;;;-3.91;87.79
30636;BME280;17400;52.392;9.750;2022-12-15T01:48:24;99845.81;;;-3.88;88.42
30636;BME280;17400;52.392;9.750;2022-12-15T01:50:59;99853.19;;;-3.91;88.00
30636;BME280;17400;52.392;9.750;2022-12-15T01:53:32;99860.72;;;-3.87;85.99
30636;BME280;17400;52.392;9.750;2022-12-15T01:56:03;99848.06;;;-4.04;86.18
30636;BME280;17400;52.392;9.750;2022-12-15T01:58:33;99857.63;;;-3.92;87.66
30636;BME280;17400;52.392;9.750;2022-12-15T02:03:37;99861.06;;;-3.80;85.57
30636;BME280;17400;52.392;9.750;2022-12-15T02:06:07;99854.94;;;-3.80;84.64
30636;BME280;17400;52.392;9.750;2022-12-15T02:08:39;99862.09;;;-3.92;84.40
30636;BME280;17400;52.392;9.750;2022-12-15T02:11:31;99867.34;;;-3.81;84.37
30636;BME280;17400;52.392;9.750;2022-12-15T02:14:04;99865.19;;;-3.87;83.88
30636;BME280;17400;52.392;9.750;2022-12-15T02:16:43;99865.59;;;-4.03;82.77
30636;BME280;17400;52.392;9.750;2022-12-15T02:19:43;99875.44;;;-4.05;84.17
30636;BME280;17400;52.392;9.750;2022-12-15T02:22:25;99876.03;;;-3.90;84.83
30636;BME280;17400;52.392;9.750;2022-12-15T02:25:16;99868.53;;;-3.85;83.60
30636;BME280;17400;52.392;9.750;2022-12-15T02:27:54;99877.00;;;-4.03;83.72
30636;BME280;17400;52.392;9.750;2022-12-15T02:30:29;99880.47;;;-3.91;84.59
30636;BME280;17400;52.392;9.750;2022-12-15T02:33:06;99877.34;;;-3.85;84.05
30636;BME280;17400;52.392;9.750;2022-12-15T02:35:54;99886.50;;;-4.00;84.01
30636;BME280;17400;52.392;9.750;2022-12-15T02:38:28;99891.66;;;-3.98;84.85
30636;BME280;17400;52.392;9.750;2022-12-15T02:40:57;99885.06;;;-4.04;86.01
30636;BME280;17400;52.392;9.750;2022-12-15T02:43:26;99898.88;;;-4.12;87.29
30636;BME280;17400;52.392;9.750;2022-12-15T02:46:04;99895.28;;;-4.22;89.12
30636;BME280;17400;52.392;9.750;2022-12-15T02:48:47;99895.22;;;-4.55;91.84
30636;BME280;17400;52.392;9.750;2022-12-15T02:51:30;99901.81;;;-4.49;94.35
30636;BME280;17400;52.392;9.750;2022-12-15T02:54:34;99907.56;;;-4.44;94.33
30636;BME280;17400;52.392;9.750;2022-12-15T02:57:10;99902.28;;;-4.44;92.90
30636;BME280;17400;52.392;9.750;2022-12-15T02:59:45;99903.50;;;-4.48;93.10
30636;BME280;17400;52.392;9.750;2022-12-15T03:02:24;99903.34;;;-4.58;94.48
30636;BME280;17400;52.392;9.750;2022-12-15T03:04:55;99906.97;;;-4.47;94.92
30636;BME280;17400;52.392;9.750;2022-12-15T03:07:23;99898.56;;;-4.30;94.20
30636;BME280;17400;52.392;9.750;2022-12-15T03:09:53;99904.09;;;-4.22;93.18
30636;BME280;17400;52.392;9.750;2022-12-15T03:12:22;99910.81;;;-4.18;92.94
30636;BME280;17400;52.392;9.750;2022-12-15T03:14:49;99914.41;;;-4.19;92.01
30636;BME280;17400;52.392;9.750;2022-12-15T03:17:17;99914.63;;;-4.10;92.02
30636;BME280;17400;52.392;9.750;2022-12-15T03:19:46;99917.63;;;-4.04;91.73
30636;BME280;17400;52.392;9.750;2022-12-15T03:22:15;99919.94;;;-4.22;91.80
30636;BME280;17400;52.392;9.750;2022-12-15T03:24:43;99909.84;;;-4.16;91.85
30636;BME280;17400;52.392;9.750;2022-12-15T03:27:11;99916.56;;;-4.12;92.58
30636;BME280;17400;52.392;9.750;2022-12-15T03:29:39;99926.75;;;-4.08;93.20
30636;BME280;17400;52.392;9.750;2022-12-15T03:32:07;99918.13;;;-4.10;93.06
30636;BME280;17400;52.392;9.750;2022-12-15T03:34:35;99922.06;;;-4.04;92.69
30636;BME280;17400;52.392;9.750;2022-12-15T03:37:04;99932.16;;;-3.98;93.37
30636;BME280;17400;52.392;9.750;2022-12-15T03:39:32;99935.28;;;-3.93;92.75
30636;BME280;17400;52.392;9.750;2022-12-15T03:42:00;99939.03;;;-3.95;90.98
30636;BME280;17400;52.392;9.750;2022-12-15T03:44:28;99937.06;;;-3.93;90.78
30636;BME280;17400;52.392;9.750;2022-12-15T03:46:56;99937.81;;;-3.91;90.04
30636;BME280;17400;52.392;9.750;2022-12-15T03:49:29;99946.81;;;-3.94;89.82
30636;BME280;17400;52.392;9.750;2022-12-15T03:51:56;99940.31;;;-3.90;90.41
30636;BME280;17400;52.392;9.750;2022-12-15T03:54:25;99947.66;;;-3.82;91.01
30636;BME280;17400;52.392;9.750;2022-12-15T03:56:53;99940.81;;;-3.85;90.75
30636;BME280;17400;52.392;9.750;2022-12-15T03:59:21;99938.16;;;-3.85;90.66
30636;BME280;17400;52.392;9.750;2022-12-15T04:01:49;99948.47;;;-3.81;91.50
30636;BME280;17400;52.392;9.750;2022-12-15T04:04:16;99950.16;;;-3.80;91.99
30636;BME280;17400;52.392;9.750;2022-12-15T04:06:44;99950.78;;;-3.88;92.75
30636;BME280;17400;52.392;9.750;2022-12-15T04:09:12;99954.25;;;-3.88;93.12
30636;BME280;17400;52.392;9.750;2022-12-15T04:11:41;99954.03;;;-3.85;93.53
30636;BME280;17400;52.392;9.750;2022-12-15T04:14:09;99952.81;;;-3.80;93.81
30636;BME280;17400;52.392;9.750;2022-12-15T04:16:37;99948.72;;;-3.85;93.98
30636;BME280;17400;52.392;9.750;2022-12-15T04:19:05;99950.16;;;-3.92;94.82
30636;BME280;17400;52.392;9.750;2022-12-15T04:22:04;99943.84;;;-4.00;96.75
30636;BME280;17400;52.392;9.750;2022-12-15T04:24:32;99946.94;;;-3.95;96.98
30636;BME280;17400;52.392;9.750;2022-12-15T04:27:19;99941.66;;;-3.95;97.18
30636;BME280;17400;52.392;9.750;2022-12-15T04:30:06;99957.28;;;-3.92;97.44
30636;BME280;17400;52.392;9.750;2022-12-15T04:32:51;99964.59;;;-3.85;97.69
30636;BME280;17400;52.392;9.750;2022-12-15T04:35:37;99960.47;;;-3.77;96.75
30636;BME280;17400;52.392;9.750;2022-12-15T04:38:23;99971.66;;;-3.74;95.02
30636;BME280;17400;52.392;9.750;2022-12-15T04:41:18;99962.03;;;-3.75;95.21
30636;BME280;17400;52.392;9.750;2022-12-15T04:44:06;99970.59;;;-3.71;96.46
30636;BME280;17400;52.392;9.750;2022-12-15T04:46:52;99974.44;;;-3.75;97.45
30636;BME280;17400;52.392;9.750;2022-12-15T04:49:37;99983.06;;;-3.73;97.87
30636;BME280;17400;52.392;9.750;2022-12-15T04:52:23;99980.00;;;-3.90;98.90
30636;BME280;17400;52.392;9.750;2022-12-15T04:55:08;99982.28;;;-3.96;100.00
30636;BME280;17400;52.392;9.750;2022-12-15T04:57:56;99980.81;;;-3.89;100.00
30636;BME280;17400;52.392;9.750;2022-12-15T05:00:42;99982.16;;;-3.83;100.00
30636;BME280;17400;52.392;9.750;2022-12-15T05:03:28;99974.31;;;-3.85;100.00
30636;BME280;17400;52.392;9.750;2022-12-15T05:06:13;99969.88;;;-3.85;100.00
30636;BME280;17400;52.392;9.750;2022-12-15T05:08:58;99970.72;;;-3.84;100.00
30636;BME280;17400;52.392;9.750;2022-12-15T05:11:44;99973.13;;;-3.81;100.00
30636;BME280;17400;52.392;9.750;2022-12-15T05:14:29;99975.66;;;-3.79;100.00
30636;BME280;17400;52.392;9.750;2022-12-15T05:17:16;99975.88;;;-3.82;100.00
30636;BME280;17400;52.392;9.750;2022-12-15T05:20:08;99979.13;;;-3.79;100.00
30636;BME280;17400;52.392;9.750;2022-12-15T05:22:54;99981.06;;;-3.81;100.00
30636;BME280;17400;52.392;9.750;2022-12-15T05:25:39;99977.78;;;-3.73;100.00
30636;BME280;17400;52.392;9.750;2022-12-15T05:28:25;99976.47;;;-3.67;100.00
30636;BME280;17400;52.392;9.750;2022-12-15T05:31:11;99984.97;;;-3.64;100.00
30636;BME280;17400;52.392;9.750;2022-12-15T05:33:58;99980.56;;;-3.63;100.00
30636;BME280;17400;52.392;9.750;2022-12-15T05:36:31;99981.25;;;-3.61;100.00
30636;BME280;17400;52.392;9.750;2022-12-15T05:38:59;99983.19;;;-3.63;100.00
30636;BME280;17400;52.392;9.750;2022-12-15T05:41:27;99988.63;;;-3.65;100.00
30636;BME280;17400;52.392;9.750;2022-12-15T05:43:56;99987.41;;;-3.61;100.00
30636;BME280;17400;52.392;9.750;2022-12-15T05:46:25;99984.50;;;-3.58;100.00
30636;BME280;17400;52.392;9.750;2022-12-15T05:48:53;99990.75;;;-3.59;100.00
30636;BME280;17400;52.392;9.750;2022-12-15T05:51:22;99988.97;;;-3.58;100.00
30636;BME280;17400;52.392;9.750;2022-12-15T05:53:50;99997.47;;;-3.55;100.00
30636;BME280;17400;52.392;9.750;2022-12-15T05:56:17;100007.34;;;-3.57;100.00
30636;BME280;17400;52.392;9.750;2022-12-15T05:58:45;100002.91;;;-3.56;100.00
30636;BME280;17400;52.392;9.750;2022-12-15T06:01:15;100016.59;;;-3.51;100.00
30636;BME280;17400;52.392;9.750;2022-12-15T06:03:44;100018.06;;;-3.58;100.00
30636;BME280;17400;52.392;9.750;2022-12-15T06:06:12;100027.56;;;-3.56;100.00
30636;BME280;17400;52.392;9.750;2022-12-15T06:08:41;100033.69;;;-3.55;100.00
30636;BME280;17400;52.392;9.750;2022-12-15T06:11:11;100042.44;;;-3.55;100.00
30636;BME280;17400;52.392;9.750;2022-12-15T06:13:40;100039.19;;;-3.47;100.00
30636;BME280;17400;52.392;9.750;2022-12-15T06:16:11;100039.44;;;-3.39;100.00
30636;BME280;17400;52.392;9.750;2022-12-15T06:18:41;100037.75;;;-3.40;100.00
30636;BME280;17400;52.392;9.750;2022-12-15T06:21:18;100037.38;;;-3.35;100.00
30636;BME280;17400;52.392;9.750;2022-12-15T06:23:47;100035.69;;;-3.36;100.00
30636;BME280;17400;52.392;9.750;2022-12-15T06:26:17;100032.81;;;-3.33;100.00
30636;BME280;17400;52.392;9.750;2022-12-15T06:28:46;100031.59;;;-3.29;100.00
30636;BME280;17400;52.392;9.750;2022-12-15T06:31:15;100031.94;;;-3.33;100.00
30636;BME280;17400;52.392;9.750;2022-12-15T06:33:44;100042.31;;;-3.30;100.00
30636;BME280;17400;52.392;9.750;2022-12-15T06:36:13;100053.72;;;-3.30;100.00
30636;BME280;17400;52.392;9.750;2022-12-15T06:38:44;100053.13;;;-3.33;100.00
30636;BME280;17400;52.392;9.750;2022-12-15T06:41:19;100055.31;;;-3.39;100.00
30636;BME280;17400;52.392;9.750;2022-12-15T06:43:50;100056.41;;;-3.41;100.00
30636;BME280;17400;52.392;9.750;2022-12-15T06:46:18;100057.09;;;-3.39;100.00
30636;BME280;17400;52.392;9.750;2022-12-15T06:48:47;100062.41;;;-3.39;100.00
30636;BME280;17400;52.392;9.750;2022-12-15T06:51:16;100049.16;;;-3.39;100.00
30636;BME280;17400;52.392;9.750;2022-12-15T06:53:44;100056.16;;;-3.38;100.00
30636;BME280;17400;52.392;9.750;2022-12-15T06:56:20;100048.47;;;-3.41;100.00
30636;BME280;17400;52.392;9.750;2022-12-15T06:58:57;100055.06;;;-3.47;100.00
30636;BME280;17400;52.392;9.750;2022-12-15T07:01:26;100062.06;;;-3.46;100.00
30636;BME280;17400;52.392;9.750;2022-12-15T07:03:54;100066.13;;;-3.42;100.00
30636;BME280;17400;52.392;9.750;2022-12-15T07:06:22;100068.31;;;-3.36;100.00
30636;BME280;17400;52.392;9.750;2022-12-15T07:08:52;100073.13;;;-3.41;100.00
30636;BME280;17400;52.392;9.750;2022-12-15T07:11:23;100066.88;;;-3.40;100.00
30636;BME280;17400;52.392;9.750;2022-12-15T07:13:52;100068.66;;;-3.40;100.00
30636;BME280;17400;52.392;9.750;2022-12-15T07:16:20;100066.13;;;-3.42;100.00
30636;BME280;17400;52.392;9.750;2022-12-15T07:18:49;100073.72;;;-3.37;100.00
30636;BME280;17400;52.392;9.750;2022-12-15T07:21:17;100071.78;;;-3.35;100.00
30636;BME280;17400;52.392;9.750;2022-12-15T07:23:45;100073.22;;;-3.31;100.00
30636;BME280;17400;52.392;9.750;2022-12-15T07:26:24;100082.34;;;-3.24;100.00
30636;BME280;17400;52.392;9.750;2022-12-15T07:28:52;100095.22;;;-3.19;100.00
30636;BME280;17400;52.392;9.750;2022-12-15T07:31:21;100102.31;;;-3.20;100.00
30636;BME280;17400;52.392;9.750;2022-12-15T07:33:49;100104.22;;;-3.22;100.00
30636;BME280;17400;52.392;9.750;2022-12-15T07:36:18;100107.50;;;-3.18;100.00
30636;BME280;17400;52.392;9.750;2022-12-15T07:38:46;100117.59;;;-3.12;100.00
30636;BME280;17400;52.392;9.750;2022-12-15T07:41:17;100117.59;;;-3.12;100.00
30636;BME280;17400;52.392;9.750;2022-12-15T07:43:47;100126.38;;;-3.11;100.00
30636;BME280;17400;52.392;9.750;2022-12-15T07:46:16;100135.75;;;-3.07;100.00
30636;BME280;17400;52.392;9.750;2022-12-15T07:48:44;100132.41;;;-3.21;100.00
30636;BME280;17400;52.392;9.750;2022-12-15T07:51:17;100138.56;;;-3.20;100.00
30636;BME280;17400;52.392;9.750;2022-12-15T07:53:48;100132.16;;;-3.18;100.00
30636;BME280;17400;52.392;9.750;2022-12-15T07:56:18;100140.69;;;-3.14;100.00
30636;BME280;17400;52.392;9.750;2022-12-15T07:58:47;100144.19;;;-3.13;100.00
30636;BME280;17400;52.392;9.750;2022-12-15T08:01:15;100144.44;;;-3.16;100.00
30636;BME280;17400;52.392;9.750;2022-12-15T08:03:43;100146.59;;;-3.22;100.00
30636;BME280;17400;52.392;9.750;2022-12-15T08:06:13;100147.94;;;-3.16;100.00
30636;BME280;17400;52.392;9.750;2022-12-15T08:08:43;100142.25;;;-3.11;100.00
30636;BME280;17400;52.392;9.750;2022-12-15T08:11:18;100139.34;;;-3.08;100.00
30636;BME280;17400;52.392;9.750;2022-12-15T08:13:48;100143.34;;;-3.03;100.00
30636;BME280;17400;52.392;9.750;2022-12-15T08:16:37;100155.09;;;-2.95;100.00
30636;BME280;17400;52.392;9.750;2022-12-15T08:19:06;100164.38;;;-2.90;100.00
30636;BME280;17400;52.392;9.750;2022-12-15T08:21:34;100166.53;;;-2.83;100.00
30636;BME280;17400;52.392;9.750;2022-12-15T08:24:02;100166.66;;;-2.85;100.00
30636;BME280;17400;52.392;9.750;2022-12-15T08:26:29;100166.66;;;-2.85;100.00
30636;BME280;17400;52.392;9.750;2022-12-15T08:29:01;100161.00;;;-2.80;100.00
30636;BME280;17400;52.392;9.750;2022-12-15T08:31:50;100163.38;;;-2.77;100.00
30636;BME280;17400;52.392;9.750;2022-12-15T08:34:18;100167.94;;;-2.68;100.00
30636;BME280;17400;52.392;9.750;2022-12-15T08:36:47;100165.75;;;-2.63;100.00
30636;BME280;17400;52.392;9.750;2022-12-15T08:39:15;100168.59;;;-2.55;100.00
30636;BME280;17400;52.392;9.750;2022-12-15T08:41:43;100168.13;;;-2.48;100.00
30636;BME280;17400;52.392;9.750;2022-12-15T08:44:12;100167.72;;;-2.44;100.00
30636;BME280;17400;52.392;9.750;2022-12-15T08:46:42;100163.72;;;-2.38;100.00
30636;BME280;17400;52.392;9.750;2022-12-15T08:49:10;100171.31;;;-2.33;100.00
30636;BME280;17400;52.392;9.750;2022-12-15T08:51:45;100177.06;;;-2.28;100.00
30636;BME280;17400;52.392;9.750;2022-12-15T08:54:16;100175.72;;;-2.23;100.00
30636;BME280;17400;52.392;9.750;2022-12-15T08:56:45;100188.97;;;-2.23;100.00
30636;BME280;17400;52.392;9.750;2022-12-15T08:59:14;100191.13;;;-2.16;100.00
30636;BME280;17400;52.392;9.750;2022-12-15T09:01:42;100181.94;;;-2.12;100.00
30636;BME280;17400;52.392;9.750;2022-12-15T09:04:10;100178.19;;;-2.10;100.00
30636;BME280;17400;52.392;9.750;2022-12-15T09:06:38;100183.09;;;-2.05;100.00
30636;BME280;17400;52.392;9.750;2022-12-15T09:09:09;100183.41;;;-1.98;100.00
30636;BME280;17400;52.392;9.750;2022-12-15T09:11:38;100180.38;;;-1.94;100.00
30636;BME280;17400;52.392;9.750;2022-12-15T09:14:06;100186.16;;;-1.89;100.00
30636;BME280;17400;52.392;9.750;2022-12-15T09:16:35;100188.16;;;-1.81;100.00
30636;BME280;17400;52.392;9.750;2022-12-15T09:19:03;100196.44;;;-1.74;100.00
30636;BME280;17400;52.392;9.750;2022-12-15T09:21:31;100192.69;;;-1.72;100.00
30636;BME280;17400;52.392;9.750;2022-12-15T09:24:00;100189.50;;;-1.65;100.00
30636;BME280;17400;52.392;9.750;2022-12-15T09:26:30;100189.94;;;-1.60;100.00
30636;BME280;17400;52.392;9.750;2022-12-15T09:28:58;100193.19;;;-1.57;100.00
30636;BME280;17400;52.392;9.750;2022-12-15T09:31:29;100197.44;;;-1.44;100.00
30636;BME280;17400;52.392;9.750;2022-12-15T09:34:00;100196.38;;;-1.32;100.00
30636;BME280;17400;52.392;9.750;2022-12-15T09:36:30;100196.69;;;-1.25;100.00
30636;BME280;17400;52.392;9.750;2022-12-15T09:38:59;100196.72;;;-1.15;100.00
30636;BME280;17400;52.392;9.750;2022-12-15T09:41:30;100193.53;;;-1.09;100.00
30636;BME280;17400;52.392;9.750;2022-12-15T09:44:01;100193.13;;;-1.05;100.00
30636;BME280;17400;52.392;9.750;2022-12-15T09:46:38;100193.03;;;-1.03;100.00
30636;BME280;17400;52.392;9.750;2022-12-15T09:49:22;100197.34;;;-1.02;100.00
30636;BME280;17400;52.392;9.750;2022-12-15T09:51:57;100192.75;;;-1.00;100.00
30636;BME280;17400;52.392;9.750;2022-12-15T09:54:33;100192.47;;;-0.97;100.00
30636;BME280;17400;52.392;9.750;2022-12-15T09:57:04;100184.25;;;-0.94;100.00
30636;BME280;17400;52.392;9.750;2022-12-15T09:59:40;100189.56;;;-0.94;100.00
30636;BME280;17400;52.392;9.750;2022-12-15T10:02:26;100196.53;;;-0.93;100.00
30636;BME280;17400;52.392;9.750;2022-12-15T10:05:04;100197.94;;;-0.89;100.00
30636;BME280;17400;52.392;9.750;2022-12-15T10:07:40;100206.22;;;-0.82;100.00
30636;BME280;17400;52.392;9.750;2022-12-15T10:10:14;100212.66;;;-0.85;100.00
30636;BME280;17400;52.392;9.750;2022-12-15T10:12:45;100224.13;;;-0.84;100.00
30636;BME280;17400;52.392;9.750;2022-12-15T10:15:30;100223.09;;;-0.93;100.00
30636;BME280;17400;52.392;9.750;2022-12-15T10:18:05;100222.53;;;-0.96;100.00
30636;BME280;17400;52.392;9.750;2022-12-15T10:20:39;100226.03;;;-0.96;100.00
30636;BME280;17400;52.392;9.750;2022-12-15T10:23:11;100215.97;;;-0.92;100.00
30636;BME280;17400;52.392;9.750;2022-12-15T10:25:45;100211.41;;;-0.80;100.00
30636;BME280;17400;52.392;9.750;2022-12-15T10:28:39;100215.91;;;-0.71;100.00
30636;BME280;17400;52.392;9.750;2022-12-15T10:31:18;100216.50;;;-0.58;100.00
30636;BME280;17400;52.392;9.750;2022-12-15T10:33:55;100210.31;;;-0.58;100.00
30636;BME280;17400;52.392;9.750;2022-12-15T10:36:25;100209.50;;;-0.49;100.00
30636;BME280;17400;52.392;9.750;2022-12-15T10:38:53;100207.81;;;-0.40;100.00
30636;BME280;17400;52.392;9.750;2022-12-15T10:41:21;100206.84;;;-0.39;100.00
30636;BME280;17400;52.392;9.750;2022-12-15T10:43:52;100207.13;;;-0.32;100.00
30636;BME280;17400;52.392;9.750;2022-12-15T10:46:22;100208.81;;;-0.31;100.00
30636;BME280;17400;52.392;9.750;2022-12-15T10:48:51;100213.03;;;-0.29;100.00
30636;BME280;17400;52.392;9.750;2022-12-15T10:51:24;100210.09;;;-0.26;100.00
30636;BME280;17400;52.392;9.750;2022-12-15T10:54:03;100221.16;;;-0.30;100.00
30636;BME280;17400;52.392;9.750;2022-12-15T10:56:32;100211.47;;;-0.22;100.00
30636;BME280;17400;52.392;9.750;2022-12-15T10:59:02;100214.72;;;-0.18;100.00
30636;BME280;17400;52.392;9.750;2022-12-15T11:01:32;100214.56;;;-0.17;100.00
30636;BME280;17400;52.392;9.750;2022-12-15T11:04:01;100210.94;;;-0.15;100.00
30636;BME280;17400;52.392;9.750;2022-12-15T11:06:31;100217.78;;;-0.13;100.00
30636;BME280;17400;52.392;9.750;2022-12-15T11:09:27;100218.06;;;-0.06;100.00
30636;BME280;17400;52.392;9.750;2022-12-15T11:12:00;100213.31;;;-0.03;100.00
30636;BME280;17400;52.392;9.750;2022-12-15T11:14:47;100216.53;;;0.01;100.00
30636;BME280;17400;52.392;9.750;2022-12-15T11:17:18;100210.38;;;0.01;100.00
30636;BME280;17400;52.392;9.750;2022-12-15T11:19:49;100220.88;;;0.02;100.00
30636;BME280;17400;52.392;9.750;2022-12-15T11:22:34;100223.22;;;0.05;100.00
30636;BME280;17400;52.392;9.750;2022-12-15T11:25:15;100220.47;;;0.07;100.00
30636;BME280;17400;52.392;9.750;2022-12-15T11:27:48;100216.25;;;0.04;100.00
30636;BME280;17400;52.392;9.750;2022-12-15T11:30:17;100216.38;;;0.03;100.00
30636;BME280;17400;52.392;9.750;2022-12-15T11:32:51;100215.41;;;0.04;100.00
30636;BME280;17400;52.392;9.750;2022-12-15T11:35:24;100215.69;;;0.01;100.00
30636;BME280;17400;52.392;9.750;2022-12-15T11:37:55;100216.66;;;-0.01;100.00
30636;BME280;17400;52.392;9.750;2022-12-15T11:40:34;100215.41;;;0.04;100.00
30636;BME280;17400;52.392;9.750;2022-12-15T11:43:18;100225.06;;;0.05;100.00
30636;BME280;17400;52.392;9.750;2022-12-15T11:46:00;100227.59;;;0.06;100.00
30636;BME280;17400;52.392;9.750;2022-12-15T11:48:37;100226.75;;;0.06;100.00
30636;BME280;17400;52.392;9.750;2022-12-15T11:51:13;100222.25;;;0.06;100.00
30636;BME280;17400;52.392;9.750;2022-12-15T11:53:57;100227.44;;;0.08;100.00
30636;BME280;17400;52.392;9.750;2022-12-15T11:56:31;100229.84;;;0.11;100.00
30636;BME280;17400;52.392;9.750;2022-12-15T12:05:19;100227.44;;;0.37;100.00
30636;BME280;17400;52.392;9.750;2022-12-15T12:07:56;100222.78;;;0.49;100.00
30636;BME280;17400;52.392;9.750;2022-12-15T12:10:33;100216.28;;;0.61;100.00
30636;BME280;17400;52.392;9.750;2022-12-15T12:13:13;100217.88;;;0.82;100.00
30636;BME280;17400;52.392;9.750;2022-12-15T12:15:55;100217.38;;;1.06;100.00
30636;BME280;17400;52.392;9.750;2022-12-15T12:18:26;100208.00;;;1.30;100.00
30636;BME280;17400;52.392;9.750;2022-12-15T12:21:03;100204.22;;;1.50;100.00
30636;BME280;17400;52.392;9.750;2022-12-15T12:23:36;100202.25;;;1.71;100.00
30636;BME280;17400;52.392;9.750;2022-12-15T12:26:11;100203.25;;;1.88;97.71
30636;BME280;17400;52.392;9.750;2022-12-15T12:28:46;100200.56;;;2.06;95.95
30636;BME280;17400;52.392;9.750;2022-12-15T12:31:21;100203.66;;;2.19;94.69
30636;BME280;17400;52.392;9.750;2022-12-15T12:33:54;100202.28;;;2.33;93.14
30636;BME280;17400;52.392;9.750;2022-12-15T12:36:25;100203.91;;;2.52;91.40
30636;BME280;17400;52.392;9.750;2022-12-15T12:38:54;100205.31;;;2.64;92.03
30636;BME280;17400;52.392;9.750;2022-12-15T12:41:31;100202.72;;;2.73;90.92
30636;BME280;17400;52.392;9.750;2022-12-15T12:44:08;100207.28;;;2.54;91.18
30636;BME280;17400;52.392;9.750;2022-12-15T12:46:40;100211.91;;;2.26;90.87
30636;BME280;17400;52.392;9.750;2022-12-15T12:49:15;100210.41;;;2.05;92.71
30636;BME280;17400;52.392;9.750;2022-12-15T12:51:53;100206.75;;;1.88;94.57
30636;BME280;17400;52.392;9.750;2022-12-15T12:54:40;100206.97;;;1.77;96.02
30636;BME280;17400;52.392;9.750;2022-12-15T12:57:32;100213.69;;;1.63;96.83
30636;BME280;17400;52.392;9.750;2022-12-15T13:00:12;100216.25;;;1.55;97.39
30636;BME280;17400;52.392;9.750;2022-12-15T13:05:45;100205.03;;;1.33;99.05
30636;BME280;17400;52.392;9.750;2022-12-15T13:08:47;100205.84;;;1.33;99.47
30636;BME280;17400;52.392;9.750;2022-12-15T13:14:46;100204.63;;;1.28;100.00
30636;BME280;17400;52.392;9.750;2022-12-15T13:17:29;100201.19;;;1.17;100.00
30636;BME280;17400;52.392;9.750;2022-12-15T13:20:28;100206.38;;;1.19;100.00
30636;BME280;17400;52.392;9.750;2022-12-15T13:23:33;100202.31;;;1.15;100.00
30636;BME280;17400;52.392;9.750;2022-12-15T13:26:11;100198.56;;;1.08;100.00
30636;BME280;17400;52.392;9.750;2022-12-15T13:28:43;100200.25;;;1.09;100.00
30636;BME280;17400;52.392;9.750;2022-12-15T13:34:23;100198.28;;;1.11;100.00
30636;BME280;17400;52.392;9.750;2022-12-15T13:36:57;100206.41;;;1.09;100.00
30636;BME280;17400;52.392;9.750;2022-12-15T13:42:28;100212.06;;;1.06;100.00
30636;BME280;17400;52.392;9.750;2022-12-15T13:48:15;100200.44;;;0.97;100.00
30636;BME280;17400;52.392;9.750;2022-12-15T13:50:50;100203.09;;;0.97;100.00
30636;BME280;17400;52.392;9.750;2022-12-15T13:53:21;100206.22;;;0.93;100.00
30636;BME280;17400;52.392;9.750;2022-12-15T13:55:59;100210.84;;;0.91;100.00